sensor_id;sensor_type;location;lat;lon;timestamp;temperature;humidity
13389;DHT22;6764;53.250;10.410;2024-03-23T00:55:14;8.80;99.90
13389;DHT22;6764;53.250;10.410;2024-03-23T00:57:39;8.80;99.90
13389;DHT22;6764;53.250;10.410;2024-03-23T01:00:05;8.70;99.90
13389;DHT22;6764;53.250;10.410;2024-03-23T01:02:32;8.70;99.90
13389;DHT22;6764;53.250;10.410;2024-03-23T01:04:58;8.70;99.90
13389;DHT22;6764;53.250;10.410;2024-03-23T01:07:23;8.70;99.90
13389;DHT22;6764;53.250;10.410;2024-03-23T01:09:49;8.80;99.90
13389;DHT22;6764;53.250;10.410;2024-03-23T01:12:15;8.80;99.90
13389;DHT22;6764;53.250;10.410;2024-03-23T01:14:40;8.90;99.90
13389;DHT22;6764;53.250;10.410;2024-03-23T01:17:06;9.00;99.90
13389;DHT22;6764;53.250;10.410;2024-03-23T01:19:31;9.00;99.90
13389;DHT22;6764;53.250;10.410;2024-03-23T01:21:57;9.00;99.90
13389;DHT22;6764;53.250;10.410;2024-03-23T01:24:23;9.00;99.90
13389;DHT22;6764;53.250;10.410;2024-03-23T01:26:48;9.00;99.90
13389;DHT22;6764;53.250;10.410;2024-03-23T01:29:14;8.90;99.90
13389;DHT22;6764;53.250;10.410;2024-03-23T01:31:39;8.90;99.90
13389;DHT22;6764;53.250;10.410;2024-03-23T01:34:05;8.80;99.90
13389;DHT22;6764;53.250;10.410;2024-03-23T01:36:31;8.90;99.90
13389;DHT22;6764;53.250;10.410;2024-03-23T01:38:56;8.90;99.90
13389;DHT22;6764;53.250;10.410;2024-03-23T01:41:24;8.90;99.90
13389;DHT22;6764;53.250;10.410;2024-03-23T01:43:49;8.90;99.90
13389;DHT22;6764;53.250;10.410;2024-03-23T01:46:15;8.80;99.90
13389;DHT22;6764;53.250;10.410;2024-03-23T01:48:42;8.80;99.90
13389;DHT22;6764;53.250;10.410;2024-03-23T01:51:07;8.80;99.90
13389;DHT22;6764;53.250;10.410;2024-03-23T01:53:33;8.80;99.90
13389;DHT22;6764;53.250;10.410;2024-03-23T01:55:59;8.80;99.90
13389;DHT22;6764;53.250;10.410;2024-03-23T01:58:24;8.80;99.90
13389;DHT22;6764;53.250;10.410;2024-03-23T02:00:50;8.80;99.90
13389;DHT22;6764;53.250;10.410;2024-03-23T02:03:26;8.70;99.90
13389;DHT22;6764;53.250;10.410;2024-03-23T02:05:53;8.70;99.90
13389;DHT22;6764;53.250;10.410;2024-03-23T02:08:21;8.70;99.90
13389;DHT22;6764;53.250;10.410;2024-03-23T02:10:48;8.70;99.90
13389;DHT22;6764;53.250;10.410;2024-03-23T02:13:14;8.60;99.90
13389;DHT22;6764;53.250;10.410;2024-03-23T02:15:40;8.60;99.90
13389;DHT22;6764;53.250;10.410;2024-03-23T02:18:07;8.60;99.90
13389;DHT22;6764;53.250;10.410;2024-03-23T02:20:33;8.60;99.90
13389;DHT22;6764;53.250;10.410;2024-03-23T02:22:58;8.50;99.90
13389;DHT22;6764;53.250;10.410;2024-03-23T02:25:24;8.50;99.90
13389;DHT22;6764;53.250;10.410;2024-03-23T02:27:50;8.60;99.90
13389;DHT22;6764;53.250;10.410;2024-03-23T02:30:15;8.60;99.90
13389;DHT22;6764;53.250;10.410;2024-03-23T02:32:41;8.60;99.90
13389;DHT22;6764;53.250;10.410;2024-03-23T02:35:06;8.50;99.90
13389;DHT22;6764;53.250;10.410;2024-03-23T02:37:32;8.50;99.90
13389;DHT22;6764;53.250;10.410;2024-03-23T02:39:58;8.50;99.90
13389;DHT22;6764;53.250;10.410;2024-03-23T02:42:24;8.50;99.90
13389;DHT22;6764;53.250;10.410;2024-03-23T02:44:49;8.50;99.90
13389;DHT22;6764;53.250;10.410;2024-03-23T02:47:15;8.40;99.90
13389;DHT22;6764;53.250;10.410;2024-03-23T02:49:40;8.40;99.90
13389;DHT22;6764;53.250;10.410;2024-03-23T02:52:06;8.40;99.90
13389;DHT22;6764;53.250;10.410;2024-03-23T02:54:31;8.40;99.90
13389;DHT22;6764;53.250;10.410;2024-03-23T02:56:57;8.40;99.90
13389;DHT22;6764;53.250;10.410;2024-03-23T02:59:23;8.40;99.90
13389;DHT22;6764;53.250;10.410;2024-03-23T03:01:48;8.30;99.90
13389;DHT22;6764;53.250;10.410;2024-03-23T03:04:14;8.30;99.90
13389;DHT22;6764;53.250;10.410;2024-03-23T03:06:39;8.30;99.90
13389;DHT22;6764;53.250;10.410;2024-03-23T03:09:06;8.40;99.90
13389;DHT22;6764;53.250;10.410;2024-03-23T03:11:32;8.30;99.90
13389;DHT22;6764;53.250;10.410;2024-03-23T03:13:57;8.20;99.90
13389;DHT22;6764;53.250;10.410;2024-03-23T03:16:25;8.20;99.90
13389;DHT22;6764;53.250;10.410;2024-03-23T03:18:51;8.20;99.90
13389;DHT22;6764;53.250;10.410;2024-03-23T03:21:18;8.20;99.90
13389;DHT22;6764;53.250;10.410;2024-03-23T03:23:44;8.20;99.90
13389;DHT22;6764;53.250;10.410;2024-03-23T03:26:10;8.20;99.90
13389;DHT22;6764;53.250;10.410;2024-03-23T03:28:36;8.20;99.90
13389;DHT22;6764;53.250;10.410;2024-03-23T03:31:01;8.20;99.90
13389;DHT22;6764;53.250;10.410;2024-03-23T03:33:27;8.20;99.90
13389;DHT22;6764;53.250;10.410;2024-03-23T03:35:53;8.20;99.90
13389;DHT22;6764;53.250;10.410;2024-03-23T03:38:19;8.10;99.90
13389;DHT22;6764;53.250;10.410;2024-03-23T03:40:45;8.10;99.90
13389;DHT22;6764;53.250;10.410;2024-03-23T03:43:10;8.10;99.90
13389;DHT22;6764;53.250;10.410;2024-03-23T03:45:36;8.10;99.90
13389;DHT22;6764;53.250;10.410;2024-03-23T03:48:02;8.10;99.90
13389;DHT22;6764;53.250;10.410;2024-03-23T03:50:28;8.10;99.90
13389;DHT22;6764;53.250;10.410;2024-03-23T03:52:53;8.10;99.90
13389;DHT22;6764;53.250;10.410;2024-03-23T03:55:19;8.10;99.90
13389;DHT22;6764;53.250;10.410;2024-03-23T03:57:45;8.10;99.90
13389;DHT22;6764;53.250;10.410;2024-03-23T04:00:11;8.10;99.90
13389;DHT22;6764;53.250;10.410;2024-03-23T04:02:40;8.10;99.90
13389;DHT22;6764;53.250;10.410;2024-03-23T04:05:06;8.10;99.90
13389;DHT22;6764;53.250;10.410;2024-03-23T04:07:32;8.10;99.90
13389;DHT22;6764;53.250;10.410;2024-03-23T04:09:57;8.10;99.90
13389;DHT22;6764;53.250;10.410;2024-03-23T04:12:23;8.10;99.90
13389;DHT22;6764;53.250;10.410;2024-03-23T04:14:49;8.10;99.90
13389;DHT22;6764;53.250;10.410;2024-03-23T04:17:15;8.10;99.90
13389;DHT22;6764;53.250;10.410;2024-03-23T04:19:40;8.10;99.90
13389;DHT22;6764;53.250;10.410;2024-03-23T04:22:06;8.10;99.90
13389;DHT22;6764;53.250;10.410;2024-03-23T04:24:32;8.10;99.90
13389;DHT22;6764;53.250;10.410;2024-03-23T04:26:57;8.00;99.90
13389;DHT22;6764;53.250;10.410;2024-03-23T04:29:23;8.00;99.90
13389;DHT22;6764;53.250;10.410;2024-03-23T04:31:49;8.00;99.90
13389;DHT22;6764;53.250;10.410;2024-03-23T04:34:14;8.10;99.90
13389;DHT22;6764;53.250;10.410;2024-03-23T04:36:40;8.10;99.90
13389;DHT22;6764;53.250;10.410;2024-03-23T04:39:05;8.10;99.90
13389;DHT22;6764;53.250;10.410;2024-03-23T04:41:34;8.20;99.90
13389;DHT22;6764;53.250;10.410;2024-03-23T04:44:00;8.10;99.90
13389;DHT22;6764;53.250;10.410;2024-03-23T04:46:26;8.10;99.90
13389;DHT22;6764;53.250;10.410;2024-03-23T04:48:52;8.10;99.90
13389;DHT22;6764;53.250;10.410;2024-03-23T04:51:22;8.10;99.90
13389;DHT22;6764;53.250;10.410;2024-03-23T04:53:47;8.00;99.90
13389;DHT22;6764;53.250;10.410;2024-03-23T04:56:14;8.00;99.90
13389;DHT22;6764;53.250;10.410;2024-03-23T04:58:39;8.00;99.90
13389;DHT22;6764;53.250;10.410;2024-03-23T05:01:05;8.00;99.90
13389;DHT22;6764;53.250;10.410;2024-03-23T05:03:31;8.00;99.90
13389;DHT22;6764;53.250;10.410;2024-03-23T05:05:56;8.10;99.90
13389;DHT22;6764;53.250;10.410;2024-03-23T05:08:22;8.10;99.90
13389;DHT22;6764;53.250;10.410;2024-03-23T05:10:48;8.10;99.90
13389;DHT22;6764;53.250;10.410;2024-03-23T05:13:13;8.10;99.90
13389;DHT22;6764;53.250;10.410;2024-03-23T05:15:39;8.10;99.90
13389;DHT22;6764;53.250;10.410;2024-03-23T05:18:05;8.10;99.90
13389;DHT22;6764;53.250;10.410;2024-03-23T05:20:31;8.10;99.90
13389;DHT22;6764;53.250;10.410;2024-03-23T05:22:57;8.20;99.90
13389;DHT22;6764;53.250;10.410;2024-03-23T05:25:23;8.10;99.90
13389;DHT22;6764;53.250;10.410;2024-03-23T05:27:49;8.10;99.90
13389;DHT22;6764;53.250;10.410;2024-03-23T05:30:15;8.10;99.90
13389;DHT22;6764;53.250;10.410;2024-03-23T05:32:40;8.10;99.90
13389;DHT22;6764;53.250;10.410;2024-03-23T05:35:08;8.00;99.90
13389;DHT22;6764;53.250;10.410;2024-03-23T05:37:34;8.00;99.90
13389;DHT22;6764;53.250;10.410;2024-03-23T05:40:00;8.00;99.90
13389;DHT22;6764;53.250;10.410;2024-03-23T05:42:26;8.00;99.90
13389;DHT22;6764;53.250;10.410;2024-03-23T05:44:52;7.90;99.90
13389;DHT22;6764;53.250;10.410;2024-03-23T05:47:18;8.00;99.90
13389;DHT22;6764;53.250;10.410;2024-03-23T05:49:44;8.00;99.90
13389;DHT22;6764;53.250;10.410;2024-03-23T05:52:11;8.00;99.90
13389;DHT22;6764;53.250;10.410;2024-03-23T05:54:37;8.00;99.90
13389;DHT22;6764;53.250;10.410;2024-03-23T05:57:04;8.10;99.90
13389;DHT22;6764;53.250;10.410;2024-03-23T05:59:29;8.00;99.90
13389;DHT22;6764;53.250;10.410;2024-03-23T06:01:56;8.00;99.90
13389;DHT22;6764;53.250;10.410;2024-03-23T06:04:22;8.00;99.90
13389;DHT22;6764;53.250;10.410;2024-03-23T06:06:48;8.00;99.90
13389;DHT22;6764;53.250;10.410;2024-03-23T06:09:13;8.00;99.90
13389;DHT22;6764;53.250;10.410;2024-03-23T06:11:39;8.00;99.90
13389;DHT22;6764;53.250;10.410;2024-03-23T06:14:05;8.00;99.90
13389;DHT22;6764;53.250;10.410;2024-03-23T06:16:31;8.10;99.90
13389;DHT22;6764;53.250;10.410;2024-03-23T06:18:57;8.20;99.90
13389;DHT22;6764;53.250;10.410;2024-03-23T06:21:24;8.10;99.90
13389;DHT22;6764;53.250;10.410;2024-03-23T06:23:52;8.10;99.90
13389;DHT22;6764;53.250;10.410;2024-03-23T06:26:18;8.10;99.90
13389;DHT22;6764;53.250;10.410;2024-03-23T06:28:44;8.20;99.90
13389;DHT22;6764;53.250;10.410;2024-03-23T06:31:10;8.10;99.90
13389;DHT22;6764;53.250;10.410;2024-03-23T06:33:36;8.10;99.90
13389;DHT22;6764;53.250;10.410;2024-03-23T06:36:02;8.10;99.90
13389;DHT22;6764;53.250;10.410;2024-03-23T06:38:28;8.10;99.90
13389;DHT22;6764;53.250;10.410;2024-03-23T06:40:54;8.20;99.90
13389;DHT22;6764;53.250;10.410;2024-03-23T06:43:19;8.20;99.90
13389;DHT22;6764;53.250;10.410;2024-03-23T06:45:52;8.30;99.90
13389;DHT22;6764;53.250;10.410;2024-03-23T06:48:19;8.30;99.90
13389;DHT22;6764;53.250;10.410;2024-03-23T06:50:45;8.40;99.90
13389;DHT22;6764;53.250;10.410;2024-03-23T06:53:14;8.40;99.90
13389;DHT22;6764;53.250;10.410;2024-03-23T06:55:41;8.50;99.90
13389;DHT22;6764;53.250;10.410;2024-03-23T06:58:07;8.50;99.90
13389;DHT22;6764;53.250;10.410;2024-03-23T07:00:32;8.60;99.90
13389;DHT22;6764;53.250;10.410;2024-03-23T07:02:59;8.80;99.90
13389;DHT22;6764;53.250;10.410;2024-03-23T07:05:24;9.00;99.90
13389;DHT22;6764;53.250;10.410;2024-03-23T07:07:50;8.90;99.90
13389;DHT22;6764;53.250;10.410;2024-03-23T07:10:16;9.00;99.90
13389;DHT22;6764;53.250;10.410;2024-03-23T07:12:41;9.20;99.90
13389;DHT22;6764;53.250;10.410;2024-03-23T07:15:07;9.40;99.90
13389;DHT22;6764;53.250;10.410;2024-03-23T07:17:33;9.50;99.90
13389;DHT22;6764;53.250;10.410;2024-03-23T07:20:01;9.60;99.90
13389;DHT22;6764;53.250;10.410;2024-03-23T07:22:32;9.60;99.90
13389;DHT22;6764;53.250;10.410;2024-03-23T07:25:01;9.70;99.90
13389;DHT22;6764;53.250;10.410;2024-03-23T07:27:27;9.60;99.90
13389;DHT22;6764;53.250;10.410;2024-03-23T07:29:52;9.40;99.90
13389;DHT22;6764;53.250;10.410;2024-03-23T07:32:18;9.50;99.90
13389;DHT22;6764;53.250;10.410;2024-03-23T07:34:43;9.50;99.90
13389;DHT22;6764;53.250;10.410;2024-03-23T07:37:10;9.50;99.90
13389;DHT22;6764;53.250;10.410;2024-03-23T07:39:35;9.50;99.90
13389;DHT22;6764;53.250;10.410;2024-03-23T07:42:01;9.50;99.90
13389;DHT22;6764;53.250;10.410;2024-03-23T07:44:27;9.70;99.90
13389;DHT22;6764;53.250;10.410;2024-03-23T07:46:53;9.50;99.90
13389;DHT22;6764;53.250;10.410;2024-03-23T07:49:18;9.60;99.90
13389;DHT22;6764;53.250;10.410;2024-03-23T07:51:44;9.50;99.90
13389;DHT22;6764;53.250;10.410;2024-03-23T07:54:10;9.70;99.90
13389;DHT22;6764;53.250;10.410;2024-03-23T07:56:36;9.80;99.90
13389;DHT22;6764;53.250;10.410;2024-03-23T07:59:01;9.90;99.90
13389;DHT22;6764;53.250;10.410;2024-03-23T08:01:29;10.00;99.90
13389;DHT22;6764;53.250;10.410;2024-03-23T08:03:54;10.00;99.90
13389;DHT22;6764;53.250;10.410;2024-03-23T08:06:20;10.10;99.90
13389;DHT22;6764;53.250;10.410;2024-03-23T08:08:49;10.00;99.90
13389;DHT22;6764;53.250;10.410;2024-03-23T08:11:16;9.70;99.90
13389;DHT22;6764;53.250;10.410;2024-03-23T08:13:42;9.50;99.90
13389;DHT22;6764;53.250;10.410;2024-03-23T08:16:08;9.70;99.90
13389;DHT22;6764;53.250;10.410;2024-03-23T08:18:37;9.70;99.90
13389;DHT22;6764;53.250;10.410;2024-03-23T08:21:05;9.70;99.90
13389;DHT22;6764;53.250;10.410;2024-03-23T08:23:32;9.70;99.90
13389;DHT22;6764;53.250;10.410;2024-03-23T08:26:06;9.60;99.90
13389;DHT22;6764;53.250;10.410;2024-03-23T08:28:32;9.80;99.90
13389;DHT22;6764;53.250;10.410;2024-03-23T08:31:03;10.20;99.90
13389;DHT22;6764;53.250;10.410;2024-03-23T08:33:31;11.30;99.90
13389;DHT22;6764;53.250;10.410;2024-03-23T08:38:24;14.00;99.90
13389;DHT22;6764;53.250;10.410;2024-03-23T08:41:09;15.60;99.90
13389;DHT22;6764;53.250;10.410;2024-03-23T08:43:40;16.80;99.90
13389;DHT22;6764;53.250;10.410;2024-03-23T08:46:07;17.80;99.90
13389;DHT22;6764;53.250;10.410;2024-03-23T08:48:41;18.40;99.90
13389;DHT22;6764;53.250;10.410;2024-03-23T08:51:10;19.10;99.90
13389;DHT22;6764;53.250;10.410;2024-03-23T08:53:36;20.80;99.60
13389;DHT22;6764;53.250;10.410;2024-03-23T08:56:02;21.50;97.50
13389;DHT22;6764;53.250;10.410;2024-03-23T08:58:29;22.40;94.80
13389;DHT22;6764;53.250;10.410;2024-03-23T09:00:57;22.80;93.00
13389;DHT22;6764;53.250;10.410;2024-03-23T09:03:25;22.70;90.40
13389;DHT22;6764;53.250;10.410;2024-03-23T09:05:52;22.20;89.20
13389;DHT22;6764;53.250;10.410;2024-03-23T09:08:18;21.60;90.00
13389;DHT22;6764;53.250;10.410;2024-03-23T09:10:44;21.00;90.10
13389;DHT22;6764;53.250;10.410;2024-03-23T09:13:10;19.90;91.10
13389;DHT22;6764;53.250;10.410;2024-03-23T09:15:37;18.80;93.30
13389;DHT22;6764;53.250;10.410;2024-03-23T09:18:03;18.10;93.90
13389;DHT22;6764;53.250;10.410;2024-03-23T09:20:33;17.10;95.40
13389;DHT22;6764;53.250;10.410;2024-03-23T09:22:58;17.50;95.40
13389;DHT22;6764;53.250;10.410;2024-03-23T09:25:27;16.80;95.30
13389;DHT22;6764;53.250;10.410;2024-03-23T09:27:52;16.40;96.00
13389;DHT22;6764;53.250;10.410;2024-03-23T09:30:18;15.80;96.20
13389;DHT22;6764;53.250;10.410;2024-03-23T09:32:45;15.10;96.20
13389;DHT22;6764;53.250;10.410;2024-03-23T09:35:11;14.40;97.20
13389;DHT22;6764;53.250;10.410;2024-03-23T09:37:38;14.40;97.80
13389;DHT22;6764;53.250;10.410;2024-03-23T09:40:06;15.20;98.10
13389;DHT22;6764;53.250;10.410;2024-03-23T09:42:34;16.20;96.80
13389;DHT22;6764;53.250;10.410;2024-03-23T09:45:00;17.50;95.30
13389;DHT22;6764;53.250;10.410;2024-03-23T09:47:26;18.10;94.90
13389;DHT22;6764;53.250;10.410;2024-03-23T09:49:52;18.60;94.00
13389;DHT22;6764;53.250;10.410;2024-03-23T09:52:18;18.50;92.60
13389;DHT22;6764;53.250;10.410;2024-03-23T09:54:44;18.30;92.80
13389;DHT22;6764;53.250;10.410;2024-03-23T09:57:10;17.80;91.10
13389;DHT22;6764;53.250;10.410;2024-03-23T09:59:36;16.30;92.40
13389;DHT22;6764;53.250;10.410;2024-03-23T10:02:01;15.60;93.90
13389;DHT22;6764;53.250;10.410;2024-03-23T10:04:40;15.30;94.60
13389;DHT22;6764;53.250;10.410;2024-03-23T10:07:19;14.80;95.30
13389;DHT22;6764;53.250;10.410;2024-03-23T10:09:45;14.10;96.90
13389;DHT22;6764;53.250;10.410;2024-03-23T10:12:12;13.60;98.70
13389;DHT22;6764;53.250;10.410;2024-03-23T10:14:39;14.70;97.80
13389;DHT22;6764;53.250;10.410;2024-03-23T10:19:46;16.60;94.90
13389;DHT22;6764;53.250;10.410;2024-03-23T10:22:19;16.90;93.30
13389;DHT22;6764;53.250;10.410;2024-03-23T10:24:45;17.40;93.10
13389;DHT22;6764;53.250;10.410;2024-03-23T10:27:16;17.80;92.20
13389;DHT22;6764;53.250;10.410;2024-03-23T10:29:43;17.80;93.20
13389;DHT22;6764;53.250;10.410;2024-03-23T10:32:17;18.00;92.70
13389;DHT22;6764;53.250;10.410;2024-03-23T10:34:43;17.40;93.40
13389;DHT22;6764;53.250;10.410;2024-03-23T10:37:09;16.00;91.00
13389;DHT22;6764;53.250;10.410;2024-03-23T10:39:39;15.00;90.90
13389;DHT22;6764;53.250;10.410;2024-03-23T10:42:06;14.30;91.80
13389;DHT22;6764;53.250;10.410;2024-03-23T10:44:33;14.90;92.90
13389;DHT22;6764;53.250;10.410;2024-03-23T10:47:00;15.80;92.30
13389;DHT22;6764;53.250;10.410;2024-03-23T10:49:30;16.80;91.80
13389;DHT22;6764;53.250;10.410;2024-03-23T10:52:03;17.80;91.20
13389;DHT22;6764;53.250;10.410;2024-03-23T10:54:33;18.40;88.10
13389;DHT22;6764;53.250;10.410;2024-03-23T10:57:40;18.00;87.50
13389;DHT22;6764;53.250;10.410;2024-03-23T11:00:07;17.10;88.90
13389;DHT22;6764;53.250;10.410;2024-03-23T11:02:34;16.30;91.00
13389;DHT22;6764;53.250;10.410;2024-03-23T11:04:59;15.50;91.80
13389;DHT22;6764;53.250;10.410;2024-03-23T11:07:31;14.50;93.60
13389;DHT22;6764;53.250;10.410;2024-03-23T11:09:57;14.90;93.30
13389;DHT22;6764;53.250;10.410;2024-03-23T11:17:28;17.10;91.10
13389;DHT22;6764;53.250;10.410;2024-03-23T11:20:06;17.70;90.10
13389;DHT22;6764;53.250;10.410;2024-03-23T11:25:22;18.40;86.50
13389;DHT22;6764;53.250;10.410;2024-03-23T11:27:51;18.50;84.00
13389;DHT22;6764;53.250;10.410;2024-03-23T11:30:27;18.40;83.50
13389;DHT22;6764;53.250;10.410;2024-03-23T11:32:56;18.50;84.00
13389;DHT22;6764;53.250;10.410;2024-03-23T11:35:32;18.60;83.70
13389;DHT22;6764;53.250;10.410;2024-03-23T11:40:29;16.60;86.30
13389;DHT22;6764;53.250;10.410;2024-03-23T11:42:56;15.90;90.50
13389;DHT22;6764;53.250;10.410;2024-03-23T11:45:22;15.30;92.40
13389;DHT22;6764;53.250;10.410;2024-03-23T11:47:47;14.80;95.00
13389;DHT22;6764;53.250;10.410;2024-03-23T11:50:20;13.90;95.30
13389;DHT22;6764;53.250;10.410;2024-03-23T11:52:45;13.40;99.30
13389;DHT22;6764;53.250;10.410;2024-03-23T11:55:11;12.50;99.90
13389;DHT22;6764;53.250;10.410;2024-03-23T11:57:37;12.10;99.90
13389;DHT22;6764;53.250;10.410;2024-03-23T12:00:20;12.10;99.90
13389;DHT22;6764;53.250;10.410;2024-03-23T12:02:46;12.70;99.90
13389;DHT22;6764;53.250;10.410;2024-03-23T12:05:15;13.10;99.90
13389;DHT22;6764;53.250;10.410;2024-03-23T12:07:41;13.20;99.90
13389;DHT22;6764;53.250;10.410;2024-03-23T12:10:07;13.20;99.90
13389;DHT22;6764;53.250;10.410;2024-03-23T12:12:33;13.20;99.90
13389;DHT22;6764;53.250;10.410;2024-03-23T12:15:06;12.80;99.90
13389;DHT22;6764;53.250;10.410;2024-03-23T12:17:33;12.70;99.90
13389;DHT22;6764;53.250;10.410;2024-03-23T12:20:00;12.70;99.90
13389;DHT22;6764;53.250;10.410;2024-03-23T12:22:26;12.70;99.90
13389;DHT22;6764;53.250;10.410;2024-03-23T12:24:52;12.50;99.90
13389;DHT22;6764;53.250;10.410;2024-03-23T12:27:18;12.40;99.90
13389;DHT22;6764;53.250;10.410;2024-03-23T12:29:44;12.40;99.90
13389;DHT22;6764;53.250;10.410;2024-03-23T12:32:13;12.60;99.90
13389;DHT22;6764;53.250;10.410;2024-03-23T12:34:39;12.60;99.90
13389;DHT22;6764;53.250;10.410;2024-03-23T12:37:05;12.70;99.90
13389;DHT22;6764;53.250;10.410;2024-03-23T12:39:34;12.60;99.90
13389;DHT22;6764;53.250;10.410;2024-03-23T12:42:01;12.60;99.90
13389;DHT22;6764;53.250;10.410;2024-03-23T12:44:28;12.60;99.90
13389;DHT22;6764;53.250;10.410;2024-03-23T12:46:54;12.40;99.90
13389;DHT22;6764;53.250;10.410;2024-03-23T12:49:19;12.20;99.90
13389;DHT22;6764;53.250;10.410;2024-03-23T12:51:53;12.10;99.90
13389;DHT22;6764;53.250;10.410;2024-03-23T12:54:20;12.10;99.90
13389;DHT22;6764;53.250;10.410;2024-03-23T12:56:46;12.10;99.90
13389;DHT22;6764;53.250;10.410;2024-03-23T12:59:11;12.20;99.90
13389;DHT22;6764;53.250;10.410;2024-03-23T13:01:38;12.40;99.90
13389;DHT22;6764;53.250;10.410;2024-03-23T13:04:04;12.50;99.90
13389;DHT22;6764;53.250;10.410;2024-03-23T13:06:29;12.60;99.90
13389;DHT22;6764;53.250;10.410;2024-03-23T13:09:00;12.50;99.90
13389;DHT22;6764;53.250;10.410;2024-03-23T13:11:26;12.50;99.90
13389;DHT22;6764;53.250;10.410;2024-03-23T13:13:52;12.30;99.90
13389;DHT22;6764;53.250;10.410;2024-03-23T13:16:18;12.30;99.90
13389;DHT22;6764;53.250;10.410;2024-03-23T13:22:02;12.00;99.90
13389;DHT22;6764;53.250;10.410;2024-03-23T13:24:28;11.10;99.90
13389;DHT22;6764;53.250;10.410;2024-03-23T13:26:55;10.70;99.90
13389;DHT22;6764;53.250;10.410;2024-03-23T13:29:21;10.50;99.90
13389;DHT22;6764;53.250;10.410;2024-03-23T13:31:48;10.00;99.90
13389;DHT22;6764;53.250;10.410;2024-03-23T13:34:14;9.80;99.90
13389;DHT22;6764;53.250;10.410;2024-03-23T13:36:43;9.60;99.90
13389;DHT22;6764;53.250;10.410;2024-03-23T13:39:09;9.50;99.90
13389;DHT22;6764;53.250;10.410;2024-03-23T13:41:42;9.60;99.90
13389;DHT22;6764;53.250;10.410;2024-03-23T13:44:08;9.40;99.90
13389;DHT22;6764;53.250;10.410;2024-03-23T13:46:38;9.30;99.90
13389;DHT22;6764;53.250;10.410;2024-03-23T13:49:07;9.10;99.90
13389;DHT22;6764;53.250;10.410;2024-03-23T13:51:33;9.20;99.90
13389;DHT22;6764;53.250;10.410;2024-03-23T13:53:58;8.80;99.90
13389;DHT22;6764;53.250;10.410;2024-03-23T13:56:30;8.80;99.90
13389;DHT22;6764;53.250;10.410;2024-03-23T13:58:56;8.90;99.90
13389;DHT22;6764;53.250;10.410;2024-03-23T14:01:22;9.10;99.90
13389;DHT22;6764;53.250;10.410;2024-03-23T14:03:48;9.20;99.90
13389;DHT22;6764;53.250;10.410;2024-03-23T14:06:13;9.20;99.90
13389;DHT22;6764;53.250;10.410;2024-03-23T14:08:39;9.00;99.90
13389;DHT22;6764;53.250;10.410;2024-03-23T14:11:08;9.00;99.90
13389;DHT22;6764;53.250;10.410;2024-03-23T14:13:37;8.70;99.90
13389;DHT22;6764;53.250;10.410;2024-03-23T14:16:03;8.50;99.90
13389;DHT22;6764;53.250;10.410;2024-03-23T14:18:28;8.30;99.90
13389;DHT22;6764;53.250;10.410;2024-03-23T14:21:00;8.10;99.90
13389;DHT22;6764;53.250;10.410;2024-03-23T14:23:26;7.80;99.90
13389;DHT22;6764;53.250;10.410;2024-03-23T14:25:55;7.60;99.90
13389;DHT22;6764;53.250;10.410;2024-03-23T14:28:22;7.50;99.90
13389;DHT22;6764;53.250;10.410;2024-03-23T14:30:48;7.60;99.90
13389;DHT22;6764;53.250;10.410;2024-03-23T14:33:15;7.60;99.90
13389;DHT22;6764;53.250;10.410;2024-03-23T14:35:41;7.60;99.90
13389;DHT22;6764;53.250;10.410;2024-03-23T14:38:06;7.70;99.90
13389;DHT22;6764;53.250;10.410;2024-03-23T14:40:32;7.70;99.90
13389;DHT22;6764;53.250;10.410;2024-03-23T14:42:58;7.80;99.90
13389;DHT22;6764;53.250;10.410;2024-03-23T14:45:24;7.90;99.90
13389;DHT22;6764;53.250;10.410;2024-03-23T14:47:52;8.10;99.90
13389;DHT22;6764;53.250;10.410;2024-03-23T14:50:18;8.20;99.90
13389;DHT22;6764;53.250;10.410;2024-03-23T14:52:47;8.30;99.90
13389;DHT22;6764;53.250;10.410;2024-03-23T14:55:13;8.30;99.90
13389;DHT22;6764;53.250;10.410;2024-03-23T14:57:39;8.20;99.90
13389;DHT22;6764;53.250;10.410;2024-03-23T15:00:07;8.30;99.90
13389;DHT22;6764;53.250;10.410;2024-03-23T15:02:33;8.40;99.90
13389;DHT22;6764;53.250;10.410;2024-03-23T15:05:00;8.50;99.90
13389;DHT22;6764;53.250;10.410;2024-03-23T15:07:25;8.70;99.90
13389;DHT22;6764;53.250;10.410;2024-03-23T15:09:51;8.80;99.90
13389;DHT22;6764;53.250;10.410;2024-03-23T15:12:17;8.80;99.90
13389;DHT22;6764;53.250;10.410;2024-03-23T15:14:42;8.80;99.90
13389;DHT22;6764;53.250;10.410;2024-03-23T15:17:08;8.80;99.90
13389;DHT22;6764;53.250;10.410;2024-03-23T15:19:34;8.70;99.90
13389;DHT22;6764;53.250;10.410;2024-03-23T15:22:00;8.80;99.90
13389;DHT22;6764;53.250;10.410;2024-03-23T15:24:25;8.90;99.90
13389;DHT22;6764;53.250;10.410;2024-03-23T15:26:51;9.10;99.90
13389;DHT22;6764;53.250;10.410;2024-03-23T15:29:17;9.10;99.90
13389;DHT22;6764;53.250;10.410;2024-03-23T15:31:43;9.10;99.90
13389;DHT22;6764;53.250;10.410;2024-03-23T15:34:10;9.00;99.90
13389;DHT22;6764;53.250;10.410;2024-03-23T15:36:39;9.00;99.90
13389;DHT22;6764;53.250;10.410;2024-03-23T15:39:05;9.00;99.90
13389;DHT22;6764;53.250;10.410;2024-03-23T15:41:32;9.10;99.90
13389;DHT22;6764;53.250;10.410;2024-03-23T15:43:59;9.20;99.90
13389;DHT22;6764;53.250;10.410;2024-03-23T15:46:25;9.30;99.90
13389;DHT22;6764;53.250;10.410;2024-03-23T15:48:50;9.30;99.90
13389;DHT22;6764;53.250;10.410;2024-03-23T15:51:16;9.30;99.90
13389;DHT22;6764;53.250;10.410;2024-03-23T15:53:43;9.30;99.90
13389;DHT22;6764;53.250;10.410;2024-03-23T15:56:09;9.20;99.90
13389;DHT22;6764;53.250;10.410;2024-03-23T15:58:35;9.20;99.90
13389;DHT22;6764;53.250;10.410;2024-03-23T16:01:04;9.20;99.90
13389;DHT22;6764;53.250;10.410;2024-03-23T16:03:31;9.00;99.90
13389;DHT22;6764;53.250;10.410;2024-03-23T16:05:59;9.10;99.90
13389;DHT22;6764;53.250;10.410;2024-03-23T16:08:25;9.20;99.90
13389;DHT22;6764;53.250;10.410;2024-03-23T16:10:51;9.10;99.90
13389;DHT22;6764;53.250;10.410;2024-03-23T16:13:18;9.10;99.90
13389;DHT22;6764;53.250;10.410;2024-03-23T16:15:44;9.10;99.90
13389;DHT22;6764;53.250;10.410;2024-03-23T16:18:10;9.10;99.90
13389;DHT22;6764;53.250;10.410;2024-03-23T16:20:36;8.90;99.90
13389;DHT22;6764;53.250;10.410;2024-03-23T16:23:03;8.80;99.90
13389;DHT22;6764;53.250;10.410;2024-03-23T16:25:29;8.70;99.90
13389;DHT22;6764;53.250;10.410;2024-03-23T16:27:55;8.70;99.90
13389;DHT22;6764;53.250;10.410;2024-03-23T16:30:21;8.70;99.90
13389;DHT22;6764;53.250;10.410;2024-03-23T16:32:47;8.60;99.90
13389;DHT22;6764;53.250;10.410;2024-03-23T16:35:13;8.50;99.90
13389;DHT22;6764;53.250;10.410;2024-03-23T16:37:39;8.60;99.90
13389;DHT22;6764;53.250;10.410;2024-03-23T16:40:05;8.70;99.90
13389;DHT22;6764;53.250;10.410;2024-03-23T16:42:32;8.60;99.90
13389;DHT22;6764;53.250;10.410;2024-03-23T16:44:58;8.40;99.90
13389;DHT22;6764;53.250;10.410;2024-03-23T16:47:24;7.50;99.90
13389;DHT22;6764;53.250;10.410;2024-03-23T16:49:49;7.20;99.90
13389;DHT22;6764;53.250;10.410;2024-03-23T16:52:15;6.80;99.90